sensor_id;sensor_type;location;lat;lon;timestamp;P1;durP1;ratioP1;P2;durP2;ratioP2
50363;SDS011;36272;59.400;17.982;2022-10-22T00:02:08;12.82;;;8.63;;
50363;SDS011;36272;59.400;17.982;2022-10-22T00:07:09;14.48;;;8.98;;
50363;SDS011;36272;59.400;17.982;2022-10-22T00:12:12;21.15;;;9.02;;
50363;SDS011;36272;59.400;17.982;2022-10-22T00:17:14;12.82;;;8.52;;
50363;SDS011;36272;59.400;17.982;2022-10-22T00:22:16;13.07;;;7.32;;
50363;SDS011;36272;59.400;17.982;2022-10-22T00:27:17;15.00;;;8.57;;
50363;SDS011;36272;59.400;17.982;2022-10-22T00:32:19;16.25;;;9.15;;
50363;SDS011;36272;59.400;17.982;2022-10-22T00:37:20;14.77;;;9.10;;
50363;SDS011;36272;59.400;17.982;2022-10-22T00:42:23;15.05;;;8.02;;
50363;SDS011;36272;59.400;17.982;2022-10-22T00:47:27;12.70;;;8.40;;
50363;SDS011;36272;59.400;17.982;2022-10-22T00:52:31;15.60;;;9.95;;
50363;SDS011;36272;59.400;17.982;2022-10-22T00:57:33;16.23;;;9.23;;
50363;SDS011;36272;59.400;17.982;2022-10-22T01:02:36;16.48;;;8.55;;
50363;SDS011;36272;59.400;17.982;2022-10-22T01:07:43;13.50;;;9.20;;
50363;SDS011;36272;59.400;17.982;2022-10-22T01:13:01;15.57;;;9.52;;
50363;SDS011;36272;59.400;17.982;2022-10-22T01:18:27;16.58;;;10.30;;
50363;SDS011;36272;59.400;17.982;2022-10-22T01:29:01;18.20;;;8.73;;
50363;SDS011;36272;59.400;17.982;2022-10-22T01:34:23;16.60;;;8.82;;
50363;SDS011;36272;59.400;17.982;2022-10-22T01:39:28;11.65;;;7.35;;
50363;SDS011;36272;59.400;17.982;2022-10-22T01:44:32;12.85;;;8.07;;
50363;SDS011;36272;59.400;17.982;2022-10-22T01:49:43;16.33;;;8.73;;
50363;SDS011;36272;59.400;17.982;2022-10-22T01:54:55;15.18;;;7.97;;
50363;SDS011;36272;59.400;17.982;2022-10-22T02:00:11;12.05;;;7.50;;
50363;SDS011;36272;59.400;17.982;2022-10-22T02:10:22;15.68;;;7.95;;
50363;SDS011;36272;59.400;17.982;2022-10-22T02:15:25;10.75;;;7.10;;
50363;SDS011;36272;59.400;17.982;2022-10-22T02:20:33;11.23;;;6.95;;
50363;SDS011;36272;59.400;17.982;2022-10-22T02:25:40;12.18;;;7.82;;
50363;SDS011;36272;59.400;17.982;2022-10-22T02:30:48;13.23;;;7.72;;
50363;SDS011;36272;59.400;17.982;2022-10-22T02:35:55;12.38;;;8.00;;
50363;SDS011;36272;59.400;17.982;2022-10-22T02:40:57;13.00;;;8.85;;
50363;SDS011;36272;59.400;17.982;2022-10-22T02:45:59;17.25;;;8.80;;
50363;SDS011;36272;59.400;17.982;2022-10-22T02:51:01;13.63;;;8.48;;
50363;SDS011;36272;59.400;17.982;2022-10-22T02:56:03;12.80;;;7.97;;
50363;SDS011;36272;59.400;17.982;2022-10-22T03:01:05;16.77;;;9.35;;
50363;SDS011;36272;59.400;17.982;2022-10-22T03:06:07;12.00;;;8.27;;
50363;SDS011;36272;59.400;17.982;2022-10-22T03:11:08;19.17;;;9.25;;
50363;SDS011;36272;59.400;17.982;2022-10-22T03:16:10;15.95;;;9.07;;
50363;SDS011;36272;59.400;17.982;2022-10-22T03:26:28;14.30;;;9.13;;
50363;SDS011;36272;59.400;17.982;2022-10-22T03:31:30;16.70;;;8.43;;
50363;SDS011;36272;59.400;17.982;2022-10-22T03:36:31;13.77;;;9.07;;
50363;SDS011;36272;59.400;17.982;2022-10-22T03:41:34;13.32;;;8.75;;
50363;SDS011;36272;59.400;17.982;2022-10-22T03:46:36;13.32;;;8.82;;
50363;SDS011;36272;59.400;17.982;2022-10-22T03:51:38;15.32;;;9.00;;
50363;SDS011;36272;59.400;17.982;2022-10-22T03:56:40;18.67;;;9.00;;
50363;SDS011;36272;59.400;17.982;2022-10-22T04:01:41;15.27;;;8.05;;
50363;SDS011;36272;59.400;17.982;2022-10-22T04:06:43;12.80;;;7.78;;
50363;SDS011;36272;59.400;17.982;2022-10-22T04:11:44;12.35;;;7.82;;
50363;SDS011;36272;59.400;17.982;2022-10-22T04:16:46;16.27;;;7.30;;
50363;SDS011;36272;59.400;17.982;2022-10-22T04:21:48;10.85;;;7.75;;
50363;SDS011;36272;59.400;17.982;2022-10-22T04:26:49;13.10;;;7.05;;
50363;SDS011;36272;59.400;17.982;2022-10-22T04:31:53;16.58;;;8.13;;
50363;SDS011;36272;59.400;17.982;2022-10-22T04:36:55;11.60;;;8.32;;
50363;SDS011;36272;59.400;17.982;2022-10-22T04:41:56;15.60;;;9.25;;
50363;SDS011;36272;59.400;17.982;2022-10-22T04:46:58;12.57;;;7.32;;
50363;SDS011;36272;59.400;17.982;2022-10-22T04:52:05;21.42;;;8.93;;
50363;SDS011;36272;59.400;17.982;2022-10-22T04:57:06;14.82;;;8.05;;
50363;SDS011;36272;59.400;17.982;2022-10-22T05:02:08;10.32;;;7.97;;
50363;SDS011;36272;59.400;17.982;2022-10-22T05:07:09;11.82;;;7.90;;
50363;SDS011;36272;59.400;17.982;2022-10-22T05:12:11;12.60;;;8.43;;
50363;SDS011;36272;59.400;17.982;2022-10-22T05:17:13;13.75;;;8.20;;
50363;SDS011;36272;59.400;17.982;2022-10-22T05:22:14;20.02;;;8.50;;
50363;SDS011;36272;59.400;17.982;2022-10-22T05:27:16;13.23;;;8.63;;
50363;SDS011;36272;59.400;17.982;2022-10-22T05:32:18;15.10;;;8.18;;
50363;SDS011;36272;59.400;17.982;2022-10-22T05:37:19;13.75;;;8.73;;
50363;SDS011;36272;59.400;17.982;2022-10-22T05:42:21;15.10;;;8.20;;
50363;SDS011;36272;59.400;17.982;2022-10-22T05:47:22;11.32;;;8.18;;
50363;SDS011;36272;59.400;17.982;2022-10-22T05:52:24;10.43;;;8.02;;
50363;SDS011;36272;59.400;17.982;2022-10-22T05:57:26;15.02;;;6.72;;
50363;SDS011;36272;59.400;17.982;2022-10-22T06:02:30;11.15;;;7.10;;
50363;SDS011;36272;59.400;17.982;2022-10-22T06:07:41;10.95;;;6.60;;
50363;SDS011;36272;59.400;17.982;2022-10-22T06:12:43;10.40;;;6.50;;
50363;SDS011;36272;59.400;17.982;2022-10-22T06:17:46;11.10;;;7.32;;
50363;SDS011;36272;59.400;17.982;2022-10-22T06:22:48;14.43;;;6.70;;
50363;SDS011;36272;59.400;17.982;2022-10-22T06:27:50;9.32;;;6.15;;
50363;SDS011;36272;59.400;17.982;2022-10-22T06:32:52;13.82;;;6.82;;
50363;SDS011;36272;59.400;17.982;2022-10-22T06:37:53;8.38;;;6.60;;
50363;SDS011;36272;59.400;17.982;2022-10-22T06:42:55;11.52;;;5.93;;
50363;SDS011;36272;59.400;17.982;2022-10-22T06:47:58;13.10;;;6.60;;
50363;SDS011;36272;59.400;17.982;2022-10-22T06:53:00;8.25;;;5.60;;
50363;SDS011;36272;59.400;17.982;2022-10-22T06:58:02;14.77;;;5.85;;
50363;SDS011;36272;59.400;17.982;2022-10-22T07:03:03;9.23;;;5.75;;
50363;SDS011;36272;59.400;17.982;2022-10-22T07:08:05;10.35;;;5.38;;
50363;SDS011;36272;59.400;17.982;2022-10-22T07:13:07;8.07;;;5.40;;
50363;SDS011;36272;59.400;17.982;2022-10-22T07:18:08;10.13;;;5.53;;
50363;SDS011;36272;59.400;17.982;2022-10-22T07:23:10;11.65;;;6.10;;
50363;SDS011;36272;59.400;17.982;2022-10-22T07:28:12;12.40;;;6.53;;
50363;SDS011;36272;59.400;17.982;2022-10-22T07:33:15;8.77;;;5.90;;
50363;SDS011;36272;59.400;17.982;2022-10-22T07:38:17;13.02;;;6.13;;
50363;SDS011;36272;59.400;17.982;2022-10-22T07:43:18;8.88;;;5.88;;
50363;SDS011;36272;59.400;17.982;2022-10-22T07:48:20;11.15;;;5.60;;
50363;SDS011;36272;59.400;17.982;2022-10-22T07:53:22;9.23;;;5.60;;
50363;SDS011;36272;59.400;17.982;2022-10-22T07:58:26;8.77;;;5.80;;
50363;SDS011;36272;59.400;17.982;2022-10-22T08:03:28;9.02;;;5.45;;
50363;SDS011;36272;59.400;17.982;2022-10-22T08:08:30;10.65;;;5.35;;
50363;SDS011;36272;59.400;17.982;2022-10-22T08:13:32;8.25;;;5.90;;
50363;SDS011;36272;59.400;17.982;2022-10-22T08:18:33;8.57;;;5.30;;
50363;SDS011;36272;59.400;17.982;2022-10-22T08:23:35;9.18;;;5.38;;
50363;SDS011;36272;59.400;17.982;2022-10-22T08:28:37;13.77;;;5.63;;
50363;SDS011;36272;59.400;17.982;2022-10-22T08:33:39;11.25;;;6.00;;
50363;SDS011;36272;59.400;17.982;2022-10-22T08:38:42;11.25;;;5.47;;
50363;SDS011;36272;59.400;17.982;2022-10-22T08:48:47;8.95;;;5.72;;
50363;SDS011;36272;59.400;17.982;2022-10-22T08:59:03;9.80;;;6.47;;
50363;SDS011;36272;59.400;17.982;2022-10-22T09:04:14;10.35;;;5.90;;
50363;SDS011;36272;59.400;17.982;2022-10-22T09:09:51;15.45;;;7.32;;
50363;SDS011;36272;59.400;17.982;2022-10-22T09:14:57;8.23;;;6.22;;
50363;SDS011;36272;59.400;17.982;2022-10-22T09:25:30;13.55;;;6.35;;
50363;SDS011;36272;59.400;17.982;2022-10-22T09:30:34;13.83;;;6.60;;
50363;SDS011;36272;59.400;17.982;2022-10-22T09:35:45;13.00;;;6.78;;
50363;SDS011;36272;59.400;17.982;2022-10-22T09:40:51;11.88;;;6.82;;
50363;SDS011;36272;59.400;17.982;2022-10-22T09:45:56;11.00;;;7.35;;
50363;SDS011;36272;59.400;17.982;2022-10-22T10:01:35;18.25;;;10.05;;
50363;SDS011;36272;59.400;17.982;2022-10-22T10:06:42;18.65;;;10.85;;
50363;SDS011;36272;59.400;17.982;2022-10-22T10:12:06;19.55;;;11.35;;
50363;SDS011;36272;59.400;17.982;2022-10-22T10:27:34;14.98;;;9.95;;
50363;SDS011;36272;59.400;17.982;2022-10-22T10:54:28;17.40;;;8.90;;
50363;SDS011;36272;59.400;17.982;2022-10-22T11:15:40;23.13;;;9.47;;
50363;SDS011;36272;59.400;17.982;2022-10-22T11:25:51;19.40;;;9.75;;
50363;SDS011;36272;59.400;17.982;2022-10-22T11:31:02;16.70;;;10.20;;
50363;SDS011;36272;59.400;17.982;2022-10-22T11:41:12;16.70;;;9.35;;
50363;SDS011;36272;59.400;17.982;2022-10-22T11:51:37;19.92;;;9.70;;
50363;SDS011;36272;59.400;17.982;2022-10-22T11:56:40;16.38;;;9.43;;
50363;SDS011;36272;59.400;17.982;2022-10-22T12:01:43;15.35;;;9.57;;
50363;SDS011;36272;59.400;17.982;2022-10-22T12:06:59;18.70;;;10.88;;
50363;SDS011;36272;59.400;17.982;2022-10-22T12:12:33;16.10;;;9.73;;
50363;SDS011;36272;59.400;17.982;2022-10-22T12:17:59;16.97;;;10.23;;
50363;SDS011;36272;59.400;17.982;2022-10-22T12:23:06;20.15;;;10.35;;
50363;SDS011;36272;59.400;17.982;2022-10-22T12:28:12;16.42;;;10.13;;
50363;SDS011;36272;59.400;17.982;2022-10-22T12:33:18;18.88;;;9.43;;
50363;SDS011;36272;59.400;17.982;2022-10-22T12:38:23;21.10;;;10.60;;
50363;SDS011;36272;59.400;17.982;2022-10-22T12:43:28;20.40;;;10.68;;
50363;SDS011;36272;59.400;17.982;2022-10-22T12:53:54;19.45;;;10.73;;
50363;SDS011;36272;59.400;17.982;2022-10-22T12:58:59;14.20;;;10.33;;
50363;SDS011;36272;59.400;17.982;2022-10-22T13:09:21;17.45;;;10.23;;
50363;SDS011;36272;59.400;17.982;2022-10-22T13:20:00;15.85;;;11.00;;
50363;SDS011;36272;59.400;17.982;2022-10-22T13:30:27;21.42;;;11.80;;
50363;SDS011;36272;59.400;17.982;2022-10-22T13:35:35;22.08;;;11.65;;
50363;SDS011;36272;59.400;17.982;2022-10-22T13:40:41;18.45;;;11.07;;
50363;SDS011;36272;59.400;17.982;2022-10-22T13:45:43;19.35;;;11.52;;
50363;SDS011;36272;59.400;17.982;2022-10-22T13:50:46;23.40;;;11.98;;
50363;SDS011;36272;59.400;17.982;2022-10-22T13:55:49;24.75;;;11.85;;
50363;SDS011;36272;59.400;17.982;2022-10-22T14:00:53;26.52;;;13.10;;
50363;SDS011;36272;59.400;17.982;2022-10-22T14:05:57;22.67;;;13.50;;
50363;SDS011;36272;59.400;17.982;2022-10-22T14:11:00;21.15;;;13.70;;
50363;SDS011;36272;59.400;17.982;2022-10-22T14:16:01;20.00;;;13.95;;
50363;SDS011;36272;59.400;17.982;2022-10-22T14:21:05;24.35;;;14.10;;
50363;SDS011;36272;59.400;17.982;2022-10-22T14:26:29;22.48;;;14.88;;
50363;SDS011;36272;59.400;17.982;2022-10-22T14:31:33;29.92;;;18.75;;
50363;SDS011;36272;59.400;17.982;2022-10-22T14:36:36;39.00;;;25.77;;
50363;SDS011;36272;59.400;17.982;2022-10-22T14:41:38;39.90;;;26.13;;
50363;SDS011;36272;59.400;17.982;2022-10-22T14:46:46;29.73;;;16.60;;
50363;SDS011;36272;59.400;17.982;2022-10-22T14:51:51;24.83;;;16.48;;
50363;SDS011;36272;59.400;17.982;2022-10-22T15:01:55;30.15;;;16.20;;
50363;SDS011;36272;59.400;17.982;2022-10-22T15:06:57;26.00;;;16.33;;
50363;SDS011;36272;59.400;17.982;2022-10-22T15:11:59;26.20;;;17.60;;
50363;SDS011;36272;59.400;17.982;2022-10-22T15:17:01;34.53;;;18.63;;
50363;SDS011;36272;59.400;17.982;2022-10-22T15:22:05;35.53;;;19.67;;
50363;SDS011;36272;59.400;17.982;2022-10-22T15:27:07;35.10;;;21.27;;
50363;SDS011;36272;59.400;17.982;2022-10-22T15:32:09;35.60;;;22.38;;
50363;SDS011;36272;59.400;17.982;2022-10-22T15:37:11;36.00;;;23.92;;
50363;SDS011;36272;59.400;17.982;2022-10-22T15:42:13;38.75;;;23.40;;
50363;SDS011;36272;59.400;17.982;2022-10-22T15:47:15;44.90;;;25.42;;
50363;SDS011;36272;59.400;17.982;2022-10-22T15:52:17;42.35;;;27.27;;
50363;SDS011;36272;59.400;17.982;2022-10-22T15:57:19;55.75;;;27.95;;
50363;SDS011;36272;59.400;17.982;2022-10-22T16:02:20;53.80;;;30.67;;
50363;SDS011;36272;59.400;17.982;2022-10-22T16:07:22;54.83;;;30.77;;
50363;SDS011;36272;59.400;17.982;2022-10-22T16:12:23;56.80;;;30.77;;
50363;SDS011;36272;59.400;17.982;2022-10-22T16:17:25;50.17;;;29.67;;
50363;SDS011;36272;59.400;17.982;2022-10-22T16:22:27;67.32;;;33.83;;
50363;SDS011;36272;59.400;17.982;2022-10-22T16:27:28;65.88;;;36.03;;
50363;SDS011;36272;59.400;17.982;2022-10-22T16:32:30;67.68;;;37.90;;
50363;SDS011;36272;59.400;17.982;2022-10-22T16:37:31;68.57;;;37.80;;
50363;SDS011;36272;59.400;17.982;2022-10-22T16:42:33;88.32;;;39.55;;
50363;SDS011;36272;59.400;17.982;2022-10-22T16:47:35;79.53;;;39.25;;
50363;SDS011;36272;59.400;17.982;2022-10-22T16:52:36;81.90;;;40.97;;
50363;SDS011;36272;59.400;17.982;2022-10-22T16:57:38;68.28;;;39.70;;
50363;SDS011;36272;59.400;17.982;2022-10-22T17:02:40;81.03;;;41.50;;
50363;SDS011;36272;59.400;17.982;2022-10-22T17:07:41;87.15;;;42.30;;
50363;SDS011;36272;59.400;17.982;2022-10-22T17:12:43;96.88;;;43.55;;
50363;SDS011;36272;59.400;17.982;2022-10-22T17:17:44;93.45;;;43.88;;
50363;SDS011;36272;59.400;17.982;2022-10-22T17:22:48;88.07;;;46.30;;
50363;SDS011;36272;59.400;17.982;2022-10-22T17:27:50;80.07;;;40.83;;
50363;SDS011;36272;59.400;17.982;2022-10-22T17:32:55;87.33;;;43.67;;
50363;SDS011;36272;59.400;17.982;2022-10-22T17:37:56;96.93;;;44.08;;
50363;SDS011;36272;59.400;17.982;2022-10-22T17:42:58;86.75;;;45.78;;
50363;SDS011;36272;59.400;17.982;2022-10-22T17:48:00;92.20;;;47.00;;
50363;SDS011;36272;59.400;17.982;2022-10-22T17:53:01;105.95;;;49.70;;
50363;SDS011;36272;59.400;17.982;2022-10-22T17:58:03;113.05;;;49.40;;
50363;SDS011;36272;59.400;17.982;2022-10-22T18:03:04;111.53;;;51.30;;
50363;SDS011;36272;59.400;17.982;2022-10-22T18:08:06;119.32;;;52.40;;
50363;SDS011;36272;59.400;17.982;2022-10-22T18:13:08;113.82;;;50.83;;
50363;SDS011;36272;59.400;17.982;2022-10-22T18:18:09;125.03;;;52.47;;
50363;SDS011;36272;59.400;17.982;2022-10-22T18:23:11;134.82;;;54.70;;
50363;SDS011;36272;59.400;17.982;2022-10-22T18:28:14;122.63;;;57.88;;
50363;SDS011;36272;59.400;17.982;2022-10-22T18:33:17;139.18;;;59.72;;
50363;SDS011;36272;59.400;17.982;2022-10-22T18:38:19;126.38;;;58.00;;
50363;SDS011;36272;59.400;17.982;2022-10-22T18:43:24;144.13;;;61.88;;
50363;SDS011;36272;59.400;17.982;2022-10-22T18:48:25;134.13;;;58.65;;
50363;SDS011;36272;59.400;17.982;2022-10-22T18:53:30;142.23;;;61.13;;
50363;SDS011;36272;59.400;17.982;2022-10-22T18:58:36;136.70;;;60.67;;
50363;SDS011;36272;59.400;17.982;2022-10-22T19:03:44;133.38;;;58.58;;
50363;SDS011;36272;59.400;17.982;2022-10-22T19:08:46;148.80;;;60.55;;
50363;SDS011;36272;59.400;17.982;2022-10-22T19:13:53;133.45;;;59.53;;
50363;SDS011;36272;59.400;17.982;2022-10-22T19:18:59;144.10;;;60.88;;
50363;SDS011;36272;59.400;17.982;2022-10-22T19:24:02;139.32;;;59.03;;
50363;SDS011;36272;59.400;17.982;2022-10-22T19:29:03;146.50;;;58.70;;
50363;SDS011;36272;59.400;17.982;2022-10-22T19:34:21;127.75;;;55.45;;
50363;SDS011;36272;59.400;17.982;2022-10-22T19:39:22;118.47;;;51.17;;
50363;SDS011;36272;59.400;17.982;2022-10-22T19:44:24;105.30;;;46.95;;
50363;SDS011;36272;59.400;17.982;2022-10-22T19:49:25;94.43;;;43.30;;
50363;SDS011;36272;59.400;17.982;2022-10-22T19:54:27;85.38;;;39.95;;
50363;SDS011;36272;59.400;17.982;2022-10-22T19:59:29;93.55;;;40.70;;
50363;SDS011;36272;59.400;17.982;2022-10-22T20:04:31;88.05;;;40.88;;
50363;SDS011;36272;59.400;17.982;2022-10-22T20:09:32;103.82;;;45.55;;
50363;SDS011;36272;59.400;17.982;2022-10-22T20:14:34;133.50;;;54.78;;
50363;SDS011;36272;59.400;17.982;2022-10-22T20:19:38;117.75;;;50.92;;
50363;SDS011;36272;59.400;17.982;2022-10-22T20:24:40;76.28;;;39.05;;
50363;SDS011;36272;59.400;17.982;2022-10-22T20:29:41;44.58;;;26.08;;
50363;SDS011;36272;59.400;17.982;2022-10-22T20:34:43;27.80;;;19.48;;
50363;SDS011;36272;59.400;17.982;2022-10-22T20:39:47;30.95;;;20.17;;
50363;SDS011;36272;59.400;17.982;2022-10-22T20:44:49;28.50;;;19.50;;
50363;SDS011;36272;59.400;17.982;2022-10-22T20:49:51;24.73;;;17.08;;
50363;SDS011;36272;59.400;17.982;2022-10-22T20:54:53;19.95;;;14.73;;
50363;SDS011;36272;59.400;17.982;2022-10-22T20:59:54;15.13;;;11.13;;
50363;SDS011;36272;59.400;17.982;2022-10-22T21:04:57;14.35;;;10.55;;
50363;SDS011;36272;59.400;17.982;2022-10-22T21:09:59;15.55;;;10.35;;
50363;SDS011;36272;59.400;17.982;2022-10-22T21:15:00;12.95;;;9.55;;
50363;SDS011;36272;59.400;17.982;2022-10-22T21:20:02;12.27;;;9.55;;
50363;SDS011;36272;59.400;17.982;2022-10-22T21:25:04;14.18;;;10.48;;
50363;SDS011;36272;59.400;17.982;2022-10-22T21:30:06;15.30;;;10.20;;
50363;SDS011;36272;59.400;17.982;2022-10-22T21:35:08;17.42;;;11.23;;
50363;SDS011;36272;59.400;17.982;2022-10-22T21:40:10;20.40;;;11.63;;
50363;SDS011;36272;59.400;17.982;2022-10-22T21:45:12;17.52;;;10.20;;
50363;SDS011;36272;59.400;17.982;2022-10-22T21:50:13;10.85;;;7.78;;
50363;SDS011;36272;59.400;17.982;2022-10-22T21:55:15;9.55;;;7.32;;
50363;SDS011;36272;59.400;17.982;2022-10-22T22:00:19;9.40;;;7.03;;
50363;SDS011;36272;59.400;17.982;2022-10-22T22:05:20;10.98;;;8.15;;
50363;SDS011;36272;59.400;17.982;2022-10-22T22:10:22;13.35;;;9.18;;
50363;SDS011;36272;59.400;17.982;2022-10-22T22:15:26;13.55;;;9.98;;
50363;SDS011;36272;59.400;17.982;2022-10-22T22:20:28;15.20;;;10.27;;
50363;SDS011;36272;59.400;17.982;2022-10-22T22:25:31;14.25;;;10.07;;
50363;SDS011;36272;59.400;17.982;2022-10-22T22:30:32;14.23;;;10.07;;
50363;SDS011;36272;59.400;17.982;2022-10-22T22:35:34;13.13;;;9.98;;
50363;SDS011;36272;59.400;17.982;2022-10-22T22:40:37;13.80;;;9.93;;
50363;SDS011;36272;59.400;17.982;2022-10-22T22:45:39;12.40;;;9.40;;
50363;SDS011;36272;59.400;17.982;2022-10-22T22:50:41;14.20;;;9.57;;
50363;SDS011;36272;59.400;17.982;2022-10-22T22:55:42;15.02;;;9.45;;
50363;SDS011;36272;59.400;17.982;2022-10-22T23:00:44;15.02;;;9.85;;
50363;SDS011;36272;59.400;17.982;2022-10-22T23:05:45;14.30;;;10.13;;
50363;SDS011;36272;59.400;17.982;2022-10-22T23:10:47;15.68;;;11.13;;
50363;SDS011;36272;59.400;17.982;2022-10-22T23:15:49;17.33;;;10.98;;
50363;SDS011;36272;59.400;17.982;2022-10-22T23:20:51;14.50;;;10.77;;
50363;SDS011;36272;59.400;17.982;2022-10-22T23:25:53;16.92;;;10.45;;
50363;SDS011;36272;59.400;17.982;2022-10-22T23:30:56;16.50;;;10.95;;
50363;SDS011;36272;59.400;17.982;2022-10-22T23:35:59;16.50;;;11.43;;
50363;SDS011;36272;59.400;17.982;2022-10-22T23:41:02;16.48;;;11.68;;
50363;SDS011;36272;59.400;17.982;2022-10-22T23:46:05;20.40;;;12.63;;
50363;SDS011;36272;59.400;17.982;2022-10-22T23:51:10;21.10;;;11.90;;
50363;SDS011;36272;59.400;17.982;2022-10-22T23:56:15;16.55;;;11.48;;
